OONHK / OO-NHK 7700 Squawk Report (16th of January, 2018)

Time Lat Lon Altitude Heading Speed Vertical Rate
2018-01-16 16:54:07 GMT 41.80339 12.59202 350 152 37 0
2018-01-16 16:54:02 GMT 41.80405 12.59161 350 152 37 -64
2018-01-16 16:53:47 GMT 41.80647 12.58989 375 152 42 -128
2018-01-16 16:53:40 GMT 41.80774 12.58902 375 154 53 -64
2018-01-16 16:53:33 GMT 41.80948 12.58784 400 153 64 -128
2018-01-16 16:53:30 GMT 41.81030 12.58727 425 153 70 -128
2018-01-16 16:53:22 GMT 41.81259 12.58571 450 152 77 -384
2018-01-16 16:53:20 GMT 41.81332 12.58521 475 152 79 -256
2018-01-16 16:53:14 GMT 41.81559 12.58369 525 152 83 -768
2018-01-16 16:53:09 GMT 41.81681 12.58286 550 152 88 -512
2018-01-16 16:53:03 GMT 41.81909 12.58122 625 152 94 -576
2018-01-16 16:52:59 GMT 41.82056 12.58022 650 153 96 -448
2018-01-16 16:52:52 GMT 41.82339 12.57828 725 152 96 -576
2018-01-16 16:52:47 GMT 41.82545 12.57685 775 152 97 -512
2018-01-16 16:52:42 GMT 41.82729 12.57554 800 153 97 -512
2018-01-16 16:52:37 GMT 41.82919 12.57424 850 152 97 -576
2018-01-16 16:52:31 GMT 41.83173 12.57248 900 152 96 -512
2018-01-16 16:52:27 GMT 41.83338 12.57136 925 152 96 -576
2018-01-16 16:52:21 GMT 41.83598 12.56961 1,000 151 97 -576
2018-01-16 16:52:15 GMT 41.83795 12.56817 1,025 152 97 -576
2018-01-16 16:52:11 GMT 41.83985 12.56689 1,075 153 98 -512
2018-01-16 16:52:06 GMT 41.84184 12.56555 1,125 152 98 -512
2018-01-16 16:52:01 GMT 41.84409 12.56405 1,175 151 99 -512
2018-01-16 16:51:55 GMT 41.84613 12.56255 1,225 151 102 -512
2018-01-16 16:51:50 GMT 41.84846 12.56089 1,275 153 109 -448
2018-01-16 16:51:42 GMT 41.85210 12.55843 1,350 152 118 -576
2018-01-16 16:51:39 GMT 41.85335 12.55757 1,375 152 119 -576
2018-01-16 16:51:29 GMT 41.85832 12.55406 1,475 151 121 -576
2018-01-16 16:51:18 GMT 41.86368 12.55032 1,600 153 122 -768
2018-01-16 16:51:08 GMT 41.86876 12.54695 1,725 152 122 -576
2018-01-16 16:50:57 GMT 41.87425 12.54313 1,825 152 123 -640
2018-01-16 16:50:57 GMT 41.87425 12.54313 1,825 152 123 -640
2018-01-16 16:50:50 GMT 41.87842 12.54021 1,925 152 123 -704
2018-01-16 16:50:47 GMT 41.87942 12.53952 1,925 152 123 -704
2018-01-16 16:50:46 GMT 41.87979 12.53930 1,950 152 123 -704
2018-01-16 16:50:44 GMT 41.88165 12.53802 2,000 152 123 -704
2018-01-16 16:50:37 GMT 41.88473 12.53584 2,050 152 124 -768
2018-01-16 16:50:37 GMT 41.88473 12.53584 2,050 152 123 -768
2018-01-16 16:50:27 GMT 41.89000 12.53222 2,175 152 123 -512
2018-01-16 16:50:25 GMT 41.89091 12.53159 2,200 152 123 -768
2018-01-16 16:50:21 GMT 41.89307 12.53009 2,225 152 125 -704
2018-01-16 16:50:17 GMT 41.89525 12.52857 2,300 152 124 -640
2018-01-16 16:50:15 GMT 41.89590 12.52810 2,325 152 124 -640
2018-01-16 16:50:12 GMT 41.89762 12.52690 2,350 152 125 -576
2018-01-16 16:50:06 GMT 41.90055 12.52480 2,425 152 125 -704
2018-01-16 16:50:06 GMT 41.90055 12.52480 2,425 152 126 -640
2018-01-16 16:50:03 GMT 41.90223 12.52365 2,450 152 126 -640
2018-01-16 16:49:55 GMT 41.90602 12.52104 2,525 152 126 -768
2018-01-16 16:49:55 GMT 41.90620 12.52092 2,550 152 126 -640
2018-01-16 16:49:53 GMT 41.90767 12.51992 2,575 152 126 -640
2018-01-16 16:49:45 GMT 41.91138 12.51730 2,650 152 125 -640
2018-01-16 16:49:42 GMT 41.91399 12.51549 2,725 152 126 -640
2018-01-16 16:49:34 GMT 41.91703 12.51336 2,775 152 125 -640
2018-01-16 16:49:25 GMT 41.92204 12.50993 2,875 152 123 -640
2018-01-16 16:49:24 GMT 41.92204 12.50993 2,875 152 123 -640
2018-01-16 16:49:21 GMT 41.92456 12.50818 2,925 153 123 -576
2018-01-16 16:49:14 GMT 41.92735 12.50631 3,000 153 124 -320
2018-01-16 16:49:13 GMT 41.92763 12.50606 3,000 153 124 -320
2018-01-16 16:49:10 GMT 41.93021 12.50429 3,025 152 124 -64
2018-01-16 16:49:03 GMT 41.93317 12.50225 3,050 150 126 64
2018-01-16 16:48:59 GMT 41.93623 12.49995 3,025 149 129 64
2018-01-16 16:48:53 GMT 41.93857 12.49801 3,025 146 132 -64
2018-01-16 16:48:47 GMT 41.94189 12.49503 3,025 139 134 0
2018-01-16 16:48:42 GMT 41.94360 12.49326 3,050 139 134 0
2018-01-16 16:48:35 GMT 41.94704 12.48933 3,025 140 133 0
2018-01-16 16:48:32 GMT 41.94855 12.48758 3,025 143 133 64
2018-01-16 16:48:25 GMT 41.95175 12.48453 3,025 154 131 64
2018-01-16 16:48:21 GMT 41.95413 12.48290 3,025 166 129 0
2018-01-16 16:48:13 GMT 41.95848 12.48159 3,025 185 126 -64
2018-01-16 16:48:11 GMT 41.96059 12.48172 3,025 192 125 0
2018-01-16 16:48:00 GMT 41.96610 12.48417 3,050 214 122 -384
2018-01-16 16:47:49 GMT 41.97085 12.48909 3,125 233 129 -448
2018-01-16 16:47:42 GMT 41.97395 12.49551 3,200 248 143 -448
2018-01-16 16:47:39 GMT 41.97424 12.49631 3,200 250 144 -512
2018-01-16 16:47:32 GMT 41.97588 12.50294 3,275 270 146 -576
2018-01-16 16:47:30 GMT 41.97597 12.50391 3,300 273 146 -576
2018-01-16 16:47:28 GMT 41.97606 12.50525 3,300 276 146 -576
2018-01-16 16:47:21 GMT 41.97533 12.51249 3,375 284 147 -512
2018-01-16 16:47:18 GMT 41.97492 12.51480 3,400 285 147 -512
2018-01-16 16:47:09 GMT 41.97336 12.52260 3,500 288 148 -576
2018-01-16 16:47:07 GMT 41.97303 12.52410 3,500 288 148 -576
2018-01-16 16:46:57 GMT 41.97094 12.53323 3,600 288 148 -576
2018-01-16 16:46:47 GMT 41.96878 12.54233 3,700 288 148 -512
2018-01-16 16:46:36 GMT 41.96666 12.55137 3,800 288 148 -576
2018-01-16 16:46:26 GMT 41.96443 12.56062 3,900 289 149 -512
2018-01-16 16:46:16 GMT 41.96210 12.56998 4,000 290 149 -576
2018-01-16 16:46:05 GMT 41.95958 12.57928 4,100 293 151 -576
2018-01-16 16:45:54 GMT 41.95660 12.58790 4,200 307 153 -704
2018-01-16 16:45:44 GMT 41.95204 12.59589 4,300 309 152 -512
2018-01-16 16:45:33 GMT 41.94738 12.60355 4,400 310 152 -640
2018-01-16 16:45:24 GMT 41.94277 12.61116 4,500 310 152 -512
2018-01-16 16:45:13 GMT 41.93821 12.61863 4,575 310 151 -576
2018-01-16 16:45:04 GMT 41.93421 12.62521 4,675 310 152 -512
2018-01-16 16:45:02 GMT 41.93351 12.62636 4,700 310 152 -448
2018-01-16 16:44:52 GMT 41.92882 12.63409 4,775 310 153 -640
2018-01-16 16:44:42 GMT 41.92419 12.64158 4,875 312 152 -704
2018-01-16 16:44:32 GMT 41.91931 12.64890 4,975 318 149 64
2018-01-16 16:44:21 GMT 41.91385 12.65481 4,975 329 152 0
2018-01-16 16:44:12 GMT 41.90837 12.65932 4,975 329 151 0
2018-01-16 16:44:10 GMT 41.90749 12.66002 5,000 328 152 0
2018-01-16 16:44:00 GMT 41.90126 12.66530 4,975 328 151 -64
2018-01-16 16:43:50 GMT 41.89522 12.67036 4,975 328 150 0
2018-01-16 16:43:40 GMT 41.88891 12.67567 4,975 328 148 0
2018-01-16 16:43:29 GMT 41.88295 12.68072 4,975 329 145 128
2018-01-16 16:43:20 GMT 41.87788 12.68493 4,975 329 140 0
2018-01-16 16:43:18 GMT 41.87709 12.68557 4,975 329 140 0
2018-01-16 16:43:10 GMT 41.87228 12.68958 4,975 328 129 64
2018-01-16 16:43:08 GMT 41.87146 12.69023 4,975 328 127 -64
2018-01-16 16:42:58 GMT 41.86620 12.69457 4,975 329 117 -256
2018-01-16 16:42:48 GMT 41.86154 12.69841 5,000 331 105 64
2018-01-16 16:42:37 GMT 41.85717 12.70166 4,975 332 104 64
2018-01-16 16:42:27 GMT 41.85287 12.70469 4,975 332 96 -128
2018-01-16 16:42:17 GMT 41.84885 12.70756 5,000 334 84 64
2018-01-16 16:42:06 GMT 41.84523 12.71000 4,975 334 82 320
2018-01-16 16:41:57 GMT 41.84222 12.71201 4,925 334 81 768
2018-01-16 16:41:55 GMT 41.84171 12.71233 4,900 334 81 896
2018-01-16 16:41:45 GMT 41.83817 12.71470 4,750 335 80 1024
2018-01-16 16:41:35 GMT 41.83475 12.71692 4,575 336 80 1088
2018-01-16 16:41:25 GMT 41.83119 12.71917 4,400 336 83 832
2018-01-16 16:41:14 GMT 41.82751 12.72134 4,250 337 82 448
2018-01-16 16:41:04 GMT 41.82376 12.72310 4,225 352 83 0
2018-01-16 16:40:54 GMT 41.81973 12.72392 4,200 351 82 960
2018-01-16 16:40:43 GMT 41.81601 12.72472 4,050 351 82 832
2018-01-16 16:40:32 GMT 41.81187 12.72562 3,975 352 86 0
2018-01-16 16:40:23 GMT 41.80788 12.72641 3,975 352 87 -64
2018-01-16 16:40:12 GMT 41.80367 12.72729 3,975 353 84 0
2018-01-16 16:40:01 GMT 41.79968 12.72791 3,975 354 83 0
2018-01-16 16:39:51 GMT 41.79558 12.72843 3,975 353 84 64
2018-01-16 16:39:49 GMT 41.79497 12.72856 3,975 352 85 0
2018-01-16 16:39:41 GMT 41.79158 12.72916 3,975 352 85 -64
2018-01-16 16:39:36 GMT 41.78985 12.72951 3,975 353 86 -64
2018-01-16 16:39:31 GMT 41.78751 12.72997 3,975 353 87 0
2018-01-16 16:39:20 GMT 41.78330 12.73066 3,975 352 88 64
2018-01-16 16:39:09 GMT 41.77891 12.73149 3,950 351 91 64
2018-01-16 16:38:59 GMT 41.77463 12.73245 3,925 352 90 192
2018-01-16 16:38:48 GMT 41.77034 12.73341 3,900 353 82 -192
2018-01-16 16:38:38 GMT 41.76644 12.73405 3,925 354 82 -576
2018-01-16 16:38:28 GMT 41.76251 12.73471 3,975 350 90 576
2018-01-16 16:38:18 GMT 41.75810 12.73571 3,875 351 89 384
2018-01-16 16:38:12 GMT 41.75582 12.73622 3,825 350 90 768
2018-01-16 16:38:07 GMT 41.75372 12.73677 3,775 348 96 1280
2018-01-16 16:37:58 GMT 41.74997 12.73784 3,600 349 109 1728
2018-01-16 16:37:56 GMT 41.74916 12.73814 3,550 351 114 1024
2018-01-16 16:37:46 GMT 41.74353 12.73948 3,450 348 131 320
2018-01-16 16:37:37 GMT 41.73790 12.74114 3,425 349 131 -64
2018-01-16 16:37:35 GMT 41.73697 12.74139 3,425 349 131 -64
2018-01-16 16:37:25 GMT 41.73106 12.74308 3,425 349 121 -192
2018-01-16 16:37:15 GMT 41.72539 12.74470 3,450 348 104 64
2018-01-16 16:37:13 GMT 41.72488 12.74483 3,450 348 104 64
2018-01-16 16:37:04 GMT 41.72067 12.74614 3,475 346 89 -576
2018-01-16 16:37:04 GMT 41.72067 12.74614 3,475 346 89 -576
2018-01-16 16:36:54 GMT 41.71672 12.74746 3,525 355 74 -512
2018-01-16 16:36:54 GMT 41.71672 12.74746 3,525 355 74 -512
2018-01-16 16:36:43 GMT 41.71318 12.74791 3,550 346 48 128
2018-01-16 16:36:43 GMT 41.71318 12.74791 3,550 346 48 128
2018-01-16 16:36:33 GMT 41.71136 12.74855 3,500 0 24 1344
2018-01-16 16:36:33 GMT 41.71136 12.74855 3,500 0 24 1344
2018-01-16 16:36:23 GMT 41.71025 12.74855 3,200 322 48 3328
2018-01-16 16:36:23 GMT 41.71025 12.74855 3,200 330 39 3264
2018-01-16 16:36:12 GMT 41.70820 12.75059 2,625 317 75 1984
2018-01-16 16:36:11 GMT 41.70804 12.75076 2,575 317 75 1984
2018-01-16 16:35:44 GMT 41.69866 12.76318 1,975 319 138 0
2018-01-16 16:35:40 GMT 41.69705 12.76549 1,975 319 138 0
2018-01-16 16:35:31 GMT 41.69251 12.77065 2,000 327 139 0
2018-01-16 16:35:20 GMT 41.68671 12.77504 1,975 341 142 0
2018-01-16 16:35:10 GMT 41.68022 12.77793 1,975 343 143 0
2018-01-16 16:34:59 GMT 41.67302 12.78103 1,975 342 145 0
2018-01-16 16:34:49 GMT 41.66670 12.78378 1,975 343 146 -64
2018-01-16 16:34:43 GMT 41.66322 12.78528 1,975 342 144 -128
2018-01-16 16:34:38 GMT 41.65956 12.78684 1,975 342 144 -64
2018-01-16 16:34:28 GMT 41.65347 12.78958 1,975 342 144 64
2018-01-16 16:34:25 GMT 41.65105 12.79064 1,975 342 144 -128
2018-01-16 16:34:17 GMT 41.64652 12.79262 1,975 342 144 -64
2018-01-16 16:34:08 GMT 41.64024 12.79539 1,975 342 143 0
2018-01-16 16:34:07 GMT 41.64024 12.79539 1,975 342 143 0
2018-01-16 16:33:57 GMT 41.63379 12.79820 1,975 343 144 -64
2018-01-16 16:33:53 GMT 41.63129 12.79920 1,975 343 147 -64
2018-01-16 16:33:46 GMT 41.62692 12.80112 1,975 342 148 64
2018-01-16 16:33:36 GMT 41.61989 12.80412 1,975 342 147 0
2018-01-16 16:33:26 GMT 41.61305 12.80712 1,975 342 146 0
2018-01-16 16:33:16 GMT 41.60701 12.80975 1,975 342 146 -128
2018-01-16 16:33:14 GMT 41.60596 12.81018 1,975 342 146 0
2018-01-16 16:33:04 GMT 41.59931 12.81312 1,975 342 147 0
2018-01-16 16:32:54 GMT 41.59213 12.81636 1,975 342 147 0
2018-01-16 16:32:44 GMT 41.58641 12.81892 1,975 342 147 0
2018-01-16 16:32:42 GMT 41.58536 12.81936 1,975 342 147 -64
2018-01-16 16:32:34 GMT 41.58009 12.82175 1,975 343 147 0
2018-01-16 16:32:32 GMT 41.57872 12.82229 1,975 343 147 0
2018-01-16 16:32:24 GMT 41.57338 12.82462 1,975 342 147 0
2018-01-16 16:32:19 GMT 41.57021 12.82604 1,975 343 148 -64
2018-01-16 16:32:13 GMT 41.56659 12.82756 1,975 343 148 0
2018-01-16 16:32:11 GMT 41.56491 12.82826 1,975 342 148 0
2018-01-16 16:32:03 GMT 41.55993 12.83037 1,975 344 147 -64
2018-01-16 16:31:53 GMT 41.55327 12.83299 1,975 346 146 0
2018-01-16 16:31:42 GMT 41.54636 12.83534 1,975 346 146 0
2018-01-16 16:31:40 GMT 41.54503 12.83578 1,975 345 146 -64
2018-01-16 16:31:31 GMT 41.53884 12.83810 1,975 343 145 0
2018-01-16 16:31:28 GMT 41.53689 12.83887 1,975 341 145 -64
2018-01-16 16:31:22 GMT 41.53303 12.84077 1,975 337 144 -64
2018-01-16 16:31:19 GMT 41.53120 12.84177 1,975 337 144 -128
2018-01-16 16:31:10 GMT 41.52576 12.84500 1,975 336 143 -128
2018-01-16 16:31:01 GMT 41.52031 12.84826 1,975 337 143 -64
2018-01-16 16:30:59 GMT 41.51934 12.84883 1,975 337 143 64
2018-01-16 16:30:50 GMT 41.51395 12.85201 1,975 337 143 -64
2018-01-16 16:30:40 GMT 41.50772 12.85569 1,975 336 142 64
2018-01-16 16:30:35 GMT 41.50453 12.85764 1,975 336 142 -128
2018-01-16 16:30:29 GMT 41.50122 12.85962 1,975 336 142 0
2018-01-16 16:30:26 GMT 41.49923 12.86084 1,975 337 143 0
2018-01-16 16:30:19 GMT 41.49513 12.86327 1,975 337 143 64
2018-01-16 16:30:08 GMT 41.48854 12.86717 1,975 336 142 0
2018-01-16 16:29:59 GMT 41.48250 12.87067 1,975 336 141 -128
2018-01-16 16:29:48 GMT 41.47646 12.87438 1,975 337 141 192
2018-01-16 16:29:38 GMT 41.47022 12.87802 1,975 338 143 -64
2018-01-16 16:29:27 GMT 41.46346 12.88166 1,975 342 144 -64
2018-01-16 16:29:25 GMT 41.46236 12.88217 1,975 343 143 128
2018-01-16 16:29:17 GMT 41.45718 12.88422 1,975 342 142 -128
2018-01-16 16:29:07 GMT 41.45114 12.88790 2,000 321 136 64
2018-01-16 16:28:56 GMT 41.44578 12.89386 1,975 316 136 0
2018-01-16 16:28:45 GMT 41.44127 12.90025 1,975 307 133 -64
2018-01-16 16:28:36 GMT 41.43809 12.90694 1,975 292 130 64
2018-01-16 16:28:25 GMT 41.43558 12.91524 1,975 292 130 -64
2018-01-16 16:28:14 GMT 41.43333 12.92304 1,975 291 128 64
2018-01-16 16:28:04 GMT 41.43127 12.93028 1,975 291 130 -64
2018-01-16 16:27:51 GMT 41.42848 12.94008 1,975 292 130 -64
2018-01-16 16:27:41 GMT 41.42619 12.94801 1,975 291 131 -128
2018-01-16 16:27:28 GMT 41.42354 12.95744 1,975 291 130 0
2018-01-16 16:27:20 GMT 41.42184 12.96343 1,975 290 129 128
2018-01-16 16:27:05 GMT 41.41892 12.97524 1,975 284 130 64
2018-01-16 16:26:58 GMT 41.41823 12.98085 1,975 279 128 0
2018-01-16 16:26:49 GMT 41.41740 12.98734 1,975 283 127 64
2018-01-16 16:26:35 GMT 41.41557 12.99836 1,975 281 129 -64
2018-01-16 16:26:27 GMT 41.41475 13.00507 1,975 280 128 -64
2018-01-16 16:26:18 GMT 41.41385 13.01190 1,975 280 128 0
2018-01-16 16:26:00 GMT 41.41203 13.02544 1,975 280 127 0
2018-01-16 16:25:57 GMT 41.41173 13.02785 1,975 280 126 0
2018-01-16 16:25:45 GMT 41.41050 13.03713 1,975 280 125 64
2018-01-16 16:25:33 GMT 41.40929 13.04620 1,975 281 128 0
2018-01-16 16:25:25 GMT 41.40836 13.05303 1,975 281 128 -64
2018-01-16 16:25:13 GMT 41.40710 13.06168 1,975 282 127 128
2018-01-16 16:25:03 GMT 41.40578 13.06999 1,975 283 128 64
2018-01-16 16:24:52 GMT 41.40440 13.07854 1,975 283 129 0
2018-01-16 16:24:44 GMT 41.40323 13.08459 1,975 295 130 0
We lost coverage of the aircraft here for a total of 21 minutes
2018-01-16 16:03:37 GMT 40.88329 13.85145 1,950 310 130 64
2018-01-16 16:03:27 GMT 40.87940 13.85773 1,925 310 132 64
2018-01-16 16:02:28 GMT 40.85643 13.89458 1,925 310 134 0
2018-01-16 16:02:23 GMT 40.85458 13.89758 1,925 309 135 0
2018-01-16 16:02:12 GMT 40.85023 13.90460 1,925 310 134 0
2018-01-16 16:02:03 GMT 40.84670 13.91038 1,925 310 134 -64
2018-01-16 16:01:53 GMT 40.84273 13.91681 1,950 309 135 0
2018-01-16 16:01:43 GMT 40.83865 13.92336 1,925 310 134 -64
2018-01-16 16:01:32 GMT 40.83417 13.93066 1,925 310 132 64
2018-01-16 16:01:22 GMT 40.83036 13.93678 1,950 310 133 64
2018-01-16 16:01:12 GMT 40.82641 13.94309 1,925 310 134 0
2018-01-16 16:01:01 GMT 40.82236 13.94965 1,925 310 134 0
2018-01-16 16:00:51 GMT 40.81826 13.95613 1,950 310 133 0
2018-01-16 16:00:41 GMT 40.81426 13.96256 1,925 310 132 -64
2018-01-16 16:00:30 GMT 40.81016 13.96912 1,925 310 130 0
2018-01-16 16:00:20 GMT 40.80629 13.97530 1,925 310 131 128
2018-01-16 16:00:09 GMT 40.80199 13.98218 1,925 310 132 -64
2018-01-16 16:00:00 GMT 40.79828 13.98828 1,925 309 132 0
2018-01-16 15:59:49 GMT 40.79419 13.99490 1,925 309 133 -64
2018-01-16 15:59:39 GMT 40.79008 14.00153 1,950 309 133 0
2018-01-16 15:59:29 GMT 40.78624 14.00787 1,925 310 133 -64
2018-01-16 15:59:18 GMT 40.78203 14.01453 1,925 310 134 0
2018-01-16 15:59:08 GMT 40.77800 14.02100 1,925 310 134 0
2018-01-16 15:58:58 GMT 40.77406 14.02728 1,950 309 133 64
2018-01-16 15:58:48 GMT 40.77012 14.03366 1,925 311 132 64
2018-01-16 15:58:37 GMT 40.76579 14.04046 1,925 310 133 -128
2018-01-16 15:58:26 GMT 40.76170 14.04689 1,950 311 130 64
2018-01-16 15:58:16 GMT 40.75760 14.05314 1,950 313 129 -64
2018-01-16 15:58:05 GMT 40.75328 14.05933 1,925 313 128 -128
2018-01-16 15:57:55 GMT 40.74932 14.06512 1,925 312 128 -64
2018-01-16 15:57:45 GMT 40.74522 14.07111 1,925 312 131 0
2018-01-16 15:57:35 GMT 40.74117 14.07704 1,950 312 134 -64
2018-01-16 15:57:25 GMT 40.73694 14.08331 1,950 312 131 64
2018-01-16 15:57:15 GMT 40.73270 14.08940 1,925 313 130 -192
2018-01-16 15:57:04 GMT 40.72823 14.09596 1,950 312 131 128
2018-01-16 15:56:54 GMT 40.72440 14.10162 1,925 313 131 192
2018-01-16 15:56:44 GMT 40.72000 14.10785 1,925 313 133 -128
2018-01-16 15:56:34 GMT 40.71570 14.11407 1,950 312 135 -64
2018-01-16 15:56:23 GMT 40.71144 14.12030 1,950 313 133 128
2018-01-16 15:56:12 GMT 40.70668 14.12720 1,925 313 134 -128
2018-01-16 15:56:02 GMT 40.70265 14.13300 1,925 312 135 -64
2018-01-16 15:55:52 GMT 40.69839 14.13928 1,925 312 135 0
2018-01-16 15:55:42 GMT 40.69420 14.14552 1,950 312 134 64
2018-01-16 15:55:32 GMT 40.68993 14.15173 1,925 313 133 192
2018-01-16 15:55:21 GMT 40.68558 14.15802 1,925 313 135 -192
2018-01-16 15:55:11 GMT 40.68127 14.16425 1,925 313 133 0
2018-01-16 15:55:00 GMT 40.67665 14.17099 1,925 312 133 0
2018-01-16 15:54:51 GMT 40.67276 14.17670 1,925 313 132 128
2018-01-16 15:54:40 GMT 40.66850 14.18279 1,950 312 131 -64
2018-01-16 15:54:30 GMT 40.66436 14.18884 1,950 312 130 0
2018-01-16 15:54:19 GMT 40.65989 14.19534 1,950 313 129 64
2018-01-16 15:54:09 GMT 40.65588 14.20114 1,925 313 129 -64
2018-01-16 15:53:59 GMT 40.65184 14.20697 1,925 313 130 0
2018-01-16 15:53:49 GMT 40.64764 14.21306 1,950 313 130 64
2018-01-16 15:53:39 GMT 40.64360 14.21887 1,950 313 130 0
2018-01-16 15:53:28 GMT 40.63927 14.22517 1,925 313 130 -64
2018-01-16 15:53:18 GMT 40.63517 14.23104 1,925 313 130 -64
2018-01-16 15:53:07 GMT 40.63074 14.23743 1,950 312 130 64

Making use of Plane Finder data

You are free to use the raw flight data, aircraft information and images provided in this report for your own purposes provided the data is correctly attributed to Plane Finder. We ask that you please credit Plane Finder and link to planefinder.net in close proximity to the content.

Optionally one of the following logos (no smaller then 150x24px) can be used and must link to planefinder.net

Embedding the Plane Finder map

You are welcome to embed the Plane Finder playback map on your website to offer visitors a more interactive experience. We suggest using the following HTML code:

<iframe src="//planefinder.net/data/report/OONHK-OO-NHK-7700-squawk-2018-01-16/map" width="800" height="600" seamless="seamless"></iframe>

Where our data comes from

Plane Finder has a global network of data feeds and antenna radars that receive data broadcast directly from aircraft. The primary technologies used are ADS-B and MLAT. We also show feeds from the FAA and a FLARM glider feed.

Click here to find out more about the Plane Finder network.

How we collect our data